sensor_id;sensor_type;location;lat;lon;timestamp;temperature;humidity
44277;DHT22;29973;43.742;1.236;2023-02-02T00:01:18;4.40;99.90
44277;DHT22;29973;43.742;1.236;2023-02-02T00:03:44;4.40;99.90
44277;DHT22;29973;43.742;1.236;2023-02-02T00:06:19;4.50;99.90
44277;DHT22;29973;43.742;1.236;2023-02-02T00:08:45;4.40;99.90
44277;DHT22;29973;43.742;1.236;2023-02-02T00:11:11;4.40;99.90
44277;DHT22;29973;43.742;1.236;2023-02-02T00:13:38;4.30;99.90
44277;DHT22;29973;43.742;1.236;2023-02-02T00:19:11;4.40;99.90
44277;DHT22;29973;43.742;1.236;2023-02-02T00:21:57;4.40;99.90
44277;DHT22;29973;43.742;1.236;2023-02-02T00:24:35;4.30;99.90
44277;DHT22;29973;43.742;1.236;2023-02-02T00:27:03;4.40;99.90
44277;DHT22;29973;43.742;1.236;2023-02-02T00:29:30;4.30;99.90
44277;DHT22;29973;43.742;1.236;2023-02-02T00:31:56;4.30;99.90
44277;DHT22;29973;43.742;1.236;2023-02-02T00:34:22;4.30;99.90
44277;DHT22;29973;43.742;1.236;2023-02-02T00:36:49;4.30;99.90
44277;DHT22;29973;43.742;1.236;2023-02-02T00:39:23;4.20;99.90
44277;DHT22;29973;43.742;1.236;2023-02-02T00:41:53;4.30;99.90
44277;DHT22;29973;43.742;1.236;2023-02-02T00:44:19;4.30;99.90
44277;DHT22;29973;43.742;1.236;2023-02-02T00:47:09;4.40;99.90
44277;DHT22;29973;43.742;1.236;2023-02-02T00:49:44;4.40;99.90
44277;DHT22;29973;43.742;1.236;2023-02-02T00:52:19;4.40;99.90
44277;DHT22;29973;43.742;1.236;2023-02-02T00:54:50;4.40;99.90
44277;DHT22;29973;43.742;1.236;2023-02-02T00:57:19;4.30;99.90
44277;DHT22;29973;43.742;1.236;2023-02-02T00:59:45;4.20;99.90
44277;DHT22;29973;43.742;1.236;2023-02-02T01:02:11;4.20;99.90
44277;DHT22;29973;43.742;1.236;2023-02-02T01:04:37;4.20;99.90
44277;DHT22;29973;43.742;1.236;2023-02-02T01:07:03;4.10;99.90
44277;DHT22;29973;43.742;1.236;2023-02-02T01:09:32;4.30;99.90
44277;DHT22;29973;43.742;1.236;2023-02-02T01:11:57;4.20;99.90
44277;DHT22;29973;43.742;1.236;2023-02-02T01:14:23;4.20;99.90
44277;DHT22;29973;43.742;1.236;2023-02-02T01:16:49;4.30;99.90
44277;DHT22;29973;43.742;1.236;2023-02-02T01:19:15;4.20;99.90
44277;DHT22;29973;43.742;1.236;2023-02-02T01:21:41;4.10;99.90
44277;DHT22;29973;43.742;1.236;2023-02-02T01:24:08;4.10;99.90
44277;DHT22;29973;43.742;1.236;2023-02-02T01:26:34;4.10;99.90
44277;DHT22;29973;43.742;1.236;2023-02-02T01:29:00;4.10;99.90
44277;DHT22;29973;43.742;1.236;2023-02-02T01:31:31;4.00;99.90
44277;DHT22;29973;43.742;1.236;2023-02-02T01:33:57;4.00;99.90
44277;DHT22;29973;43.742;1.236;2023-02-02T01:36:23;3.90;99.90
44277;DHT22;29973;43.742;1.236;2023-02-02T01:38:49;3.90;99.90
44277;DHT22;29973;43.742;1.236;2023-02-02T01:41:22;3.90;99.90
44277;DHT22;29973;43.742;1.236;2023-02-02T01:44:03;3.80;99.90
44277;DHT22;29973;43.742;1.236;2023-02-02T01:46:31;3.70;99.90
44277;DHT22;29973;43.742;1.236;2023-02-02T01:51:47;3.60;99.90
44277;DHT22;29973;43.742;1.236;2023-02-02T01:54:19;3.50;99.90
44277;DHT22;29973;43.742;1.236;2023-02-02T01:56:55;3.40;99.90
44277;DHT22;29973;43.742;1.236;2023-02-02T01:59:26;3.40;99.90
44277;DHT22;29973;43.742;1.236;2023-02-02T02:02:12;3.40;99.90
44277;DHT22;29973;43.742;1.236;2023-02-02T02:04:41;3.30;99.90
44277;DHT22;29973;43.742;1.236;2023-02-02T02:07:08;3.20;99.90
44277;DHT22;29973;43.742;1.236;2023-02-02T02:09:35;3.10;99.90
44277;DHT22;29973;43.742;1.236;2023-02-02T02:12:01;3.00;99.90
44277;DHT22;29973;43.742;1.236;2023-02-02T02:14:30;2.80;99.90
44277;DHT22;29973;43.742;1.236;2023-02-02T02:23:43;2.30;99.90
44277;DHT22;29973;43.742;1.236;2023-02-02T02:37:13;1.40;99.90
44277;DHT22;29973;43.742;1.236;2023-02-02T02:42:45;1.30;99.90
44277;DHT22;29973;43.742;1.236;2023-02-02T02:45:13;1.30;99.90
44277;DHT22;29973;43.742;1.236;2023-02-02T02:47:44;1.20;99.90
44277;DHT22;29973;43.742;1.236;2023-02-02T02:50:11;1.10;99.90
44277;DHT22;29973;43.742;1.236;2023-02-02T02:52:38;1.00;99.90
44277;DHT22;29973;43.742;1.236;2023-02-02T02:55:06;0.80;99.90
44277;DHT22;29973;43.742;1.236;2023-02-02T03:01:15;0.60;99.90
44277;DHT22;29973;43.742;1.236;2023-02-02T03:06:25;0.60;99.90
44277;DHT22;29973;43.742;1.236;2023-02-02T03:09:07;0.40;99.90
44277;DHT22;29973;43.742;1.236;2023-02-02T03:11:35;0.20;99.90
44277;DHT22;29973;43.742;1.236;2023-02-02T03:14:01;0.20;99.90
44277;DHT22;29973;43.742;1.236;2023-02-02T03:16:27;0.00;99.90
44277;DHT22;29973;43.742;1.236;2023-02-02T03:18:53;0.10;99.90
44277;DHT22;29973;43.742;1.236;2023-02-02T03:21:22;0.20;99.90
44277;DHT22;29973;43.742;1.236;2023-02-02T03:23:48;0.30;99.90
44277;DHT22;29973;43.742;1.236;2023-02-02T03:26:20;0.30;99.90
44277;DHT22;29973;43.742;1.236;2023-02-02T03:28:46;0.40;99.90
44277;DHT22;29973;43.742;1.236;2023-02-02T03:31:12;0.40;99.90
44277;DHT22;29973;43.742;1.236;2023-02-02T03:33:38;0.50;99.90
44277;DHT22;29973;43.742;1.236;2023-02-02T03:36:07;0.50;99.90
44277;DHT22;29973;43.742;1.236;2023-02-02T03:38:36;0.50;99.90
44277;DHT22;29973;43.742;1.236;2023-02-02T03:41:02;0.70;99.90
44277;DHT22;29973;43.742;1.236;2023-02-02T03:43:28;0.80;99.90
44277;DHT22;29973;43.742;1.236;2023-02-02T03:45:56;0.70;99.90
44277;DHT22;29973;43.742;1.236;2023-02-02T03:48:22;0.90;99.90
44277;DHT22;29973;43.742;1.236;2023-02-02T03:50:54;1.00;99.90
44277;DHT22;29973;43.742;1.236;2023-02-02T03:53:21;1.10;99.90
44277;DHT22;29973;43.742;1.236;2023-02-02T03:55:47;1.10;99.90
44277;DHT22;29973;43.742;1.236;2023-02-02T03:58:16;1.10;99.90
44277;DHT22;29973;43.742;1.236;2023-02-02T04:00:45;1.20;99.90
44277;DHT22;29973;43.742;1.236;2023-02-02T04:03:11;1.30;99.90
44277;DHT22;29973;43.742;1.236;2023-02-02T04:05:36;1.30;99.90
44277;DHT22;29973;43.742;1.236;2023-02-02T04:08:02;1.20;99.90
44277;DHT22;29973;43.742;1.236;2023-02-02T04:10:28;1.30;99.90
44277;DHT22;29973;43.742;1.236;2023-02-02T04:12:54;1.10;99.90
44277;DHT22;29973;43.742;1.236;2023-02-02T04:15:20;0.90;99.90
44277;DHT22;29973;43.742;1.236;2023-02-02T04:17:49;1.00;99.90
44277;DHT22;29973;43.742;1.236;2023-02-02T04:20:17;1.00;99.90
44277;DHT22;29973;43.742;1.236;2023-02-02T04:22:49;1.10;99.90
44277;DHT22;29973;43.742;1.236;2023-02-02T04:25:17;1.20;99.90
44277;DHT22;29973;43.742;1.236;2023-02-02T04:27:43;1.20;99.90
44277;DHT22;29973;43.742;1.236;2023-02-02T04:30:12;1.40;99.90
44277;DHT22;29973;43.742;1.236;2023-02-02T04:32:45;1.50;99.90
44277;DHT22;29973;43.742;1.236;2023-02-02T04:35:14;1.60;99.90
44277;DHT22;29973;43.742;1.236;2023-02-02T04:37:39;1.60;99.90
44277;DHT22;29973;43.742;1.236;2023-02-02T04:40:09;1.50;99.90
44277;DHT22;29973;43.742;1.236;2023-02-02T04:42:35;1.70;99.90
44277;DHT22;29973;43.742;1.236;2023-02-02T04:45:00;1.80;99.90
44277;DHT22;29973;43.742;1.236;2023-02-02T04:47:26;1.80;99.90
44277;DHT22;29973;43.742;1.236;2023-02-02T04:49:52;1.70;99.90
44277;DHT22;29973;43.742;1.236;2023-02-02T04:52:18;1.80;99.90
44277;DHT22;29973;43.742;1.236;2023-02-02T04:54:43;1.80;99.90
44277;DHT22;29973;43.742;1.236;2023-02-02T04:57:17;1.80;99.90
44277;DHT22;29973;43.742;1.236;2023-02-02T04:59:43;1.80;99.90
44277;DHT22;29973;43.742;1.236;2023-02-02T05:02:09;1.80;99.90
44277;DHT22;29973;43.742;1.236;2023-02-02T05:04:35;1.70;99.90
44277;DHT22;29973;43.742;1.236;2023-02-02T05:07:06;1.90;99.90
44277;DHT22;29973;43.742;1.236;2023-02-02T05:09:32;1.80;99.90
44277;DHT22;29973;43.742;1.236;2023-02-02T05:11:58;1.90;99.90
44277;DHT22;29973;43.742;1.236;2023-02-02T05:14:24;1.90;99.90
44277;DHT22;29973;43.742;1.236;2023-02-02T05:16:50;1.90;99.90
44277;DHT22;29973;43.742;1.236;2023-02-02T05:19:16;1.90;99.90
44277;DHT22;29973;43.742;1.236;2023-02-02T05:21:43;1.90;99.90
44277;DHT22;29973;43.742;1.236;2023-02-02T05:24:13;1.90;99.90
44277;DHT22;29973;43.742;1.236;2023-02-02T05:26:44;2.10;99.90
44277;DHT22;29973;43.742;1.236;2023-02-02T05:29:13;2.00;99.90
44277;DHT22;29973;43.742;1.236;2023-02-02T05:31:39;2.10;99.90
44277;DHT22;29973;43.742;1.236;2023-02-02T05:34:05;2.00;99.90
44277;DHT22;29973;43.742;1.236;2023-02-02T05:36:31;2.00;99.90
44277;DHT22;29973;43.742;1.236;2023-02-02T05:39:00;2.00;99.90
44277;DHT22;29973;43.742;1.236;2023-02-02T05:41:29;1.90;99.90
44277;DHT22;29973;43.742;1.236;2023-02-02T05:44:01;2.00;99.90
44277;DHT22;29973;43.742;1.236;2023-02-02T05:46:34;2.00;99.90
44277;DHT22;29973;43.742;1.236;2023-02-02T05:49:00;1.90;99.90
44277;DHT22;29973;43.742;1.236;2023-02-02T05:51:32;2.00;99.90
44277;DHT22;29973;43.742;1.236;2023-02-02T05:53:59;1.90;99.90
44277;DHT22;29973;43.742;1.236;2023-02-02T05:56:27;1.90;99.90
44277;DHT22;29973;43.742;1.236;2023-02-02T05:58:53;1.90;99.90
44277;DHT22;29973;43.742;1.236;2023-02-02T06:01:22;1.70;99.90
44277;DHT22;29973;43.742;1.236;2023-02-02T06:03:48;1.60;99.90
44277;DHT22;29973;43.742;1.236;2023-02-02T06:06:17;1.70;99.90
44277;DHT22;29973;43.742;1.236;2023-02-02T06:08:43;1.60;99.90
44277;DHT22;29973;43.742;1.236;2023-02-02T06:11:13;1.50;99.90
44277;DHT22;29973;43.742;1.236;2023-02-02T06:13:39;1.30;99.90
44277;DHT22;29973;43.742;1.236;2023-02-02T06:16:05;1.00;99.90
44277;DHT22;29973;43.742;1.236;2023-02-02T06:18:33;0.70;99.90
44277;DHT22;29973;43.742;1.236;2023-02-02T06:21:00;0.50;99.90
44277;DHT22;29973;43.742;1.236;2023-02-02T06:23:26;0.40;99.90
44277;DHT22;29973;43.742;1.236;2023-02-02T06:25:53;0.40;99.90
44277;DHT22;29973;43.742;1.236;2023-02-02T06:28:19;0.30;99.90
44277;DHT22;29973;43.742;1.236;2023-02-02T06:30:45;0.30;99.90
44277;DHT22;29973;43.742;1.236;2023-02-02T06:33:13;0.00;99.90
44277;DHT22;29973;43.742;1.236;2023-02-02T06:35:39;0.10;99.90
44277;DHT22;29973;43.742;1.236;2023-02-02T06:38:05;-0.10;99.90
44277;DHT22;29973;43.742;1.236;2023-02-02T06:40:31;-0.30;99.90
44277;DHT22;29973;43.742;1.236;2023-02-02T06:43:02;-0.20;99.90
44277;DHT22;29973;43.742;1.236;2023-02-02T06:45:29;-0.20;99.90
44277;DHT22;29973;43.742;1.236;2023-02-02T06:47:58;-0.40;99.90
44277;DHT22;29973;43.742;1.236;2023-02-02T06:50:25;-0.50;99.90
44277;DHT22;29973;43.742;1.236;2023-02-02T06:52:52;-0.40;99.90
44277;DHT22;29973;43.742;1.236;2023-02-02T06:55:18;-0.40;99.90
44277;DHT22;29973;43.742;1.236;2023-02-02T06:57:45;-0.50;99.90
44277;DHT22;29973;43.742;1.236;2023-02-02T07:00:11;-0.40;99.90
44277;DHT22;29973;43.742;1.236;2023-02-02T07:02:38;-0.60;99.90
44277;DHT22;29973;43.742;1.236;2023-02-02T07:05:04;-0.60;99.90
44277;DHT22;29973;43.742;1.236;2023-02-02T07:07:33;-0.60;99.90
44277;DHT22;29973;43.742;1.236;2023-02-02T07:09:59;-0.70;99.90
44277;DHT22;29973;43.742;1.236;2023-02-02T07:12:25;-0.50;99.90
44277;DHT22;29973;43.742;1.236;2023-02-02T07:14:52;-0.60;99.90
44277;DHT22;29973;43.742;1.236;2023-02-02T07:17:18;-0.70;99.90
44277;DHT22;29973;43.742;1.236;2023-02-02T07:19:44;-0.80;99.90
44277;DHT22;29973;43.742;1.236;2023-02-02T07:22:10;-0.80;99.90
44277;DHT22;29973;43.742;1.236;2023-02-02T07:24:36;-0.80;99.90
44277;DHT22;29973;43.742;1.236;2023-02-02T07:27:04;-0.60;99.90
44277;DHT22;29973;43.742;1.236;2023-02-02T07:29:30;-0.60;99.90
44277;DHT22;29973;43.742;1.236;2023-02-02T07:31:56;-0.60;99.90
44277;DHT22;29973;43.742;1.236;2023-02-02T07:34:22;-0.50;99.90
44277;DHT22;29973;43.742;1.236;2023-02-02T07:36:48;-0.40;99.90
44277;DHT22;29973;43.742;1.236;2023-02-02T07:39:13;-0.40;99.90
44277;DHT22;29973;43.742;1.236;2023-02-02T07:41:39;-0.40;99.90
44277;DHT22;29973;43.742;1.236;2023-02-02T07:44:05;-0.40;99.90
44277;DHT22;29973;43.742;1.236;2023-02-02T07:46:33;-0.40;99.90
44277;DHT22;29973;43.742;1.236;2023-02-02T07:48:59;-0.30;99.90
44277;DHT22;29973;43.742;1.236;2023-02-02T07:51:25;-0.10;99.90
44277;DHT22;29973;43.742;1.236;2023-02-02T07:53:53;-0.20;99.90
44277;DHT22;29973;43.742;1.236;2023-02-02T07:56:26;0.00;99.90
44277;DHT22;29973;43.742;1.236;2023-02-02T07:58:55;0.10;99.90
44277;DHT22;29973;43.742;1.236;2023-02-02T08:01:21;0.30;99.90
44277;DHT22;29973;43.742;1.236;2023-02-02T08:03:48;0.60;99.90
44277;DHT22;29973;43.742;1.236;2023-02-02T08:06:40;0.70;99.90
44277;DHT22;29973;43.742;1.236;2023-02-02T08:09:07;0.80;99.90
44277;DHT22;29973;43.742;1.236;2023-02-02T08:11:35;0.70;99.90
44277;DHT22;29973;43.742;1.236;2023-02-02T08:14:01;0.80;99.90
44277;DHT22;29973;43.742;1.236;2023-02-02T08:16:29;0.90;99.90
44277;DHT22;29973;43.742;1.236;2023-02-02T08:18:56;1.00;99.90
44277;DHT22;29973;43.742;1.236;2023-02-02T08:21:22;1.20;99.90
44277;DHT22;29973;43.742;1.236;2023-02-02T08:23:48;1.30;99.90
44277;DHT22;29973;43.742;1.236;2023-02-02T08:26:18;1.50;99.90
44277;DHT22;29973;43.742;1.236;2023-02-02T08:28:47;1.60;99.90
44277;DHT22;29973;43.742;1.236;2023-02-02T08:31:18;1.80;99.90
44277;DHT22;29973;43.742;1.236;2023-02-02T08:33:47;1.90;99.90
44277;DHT22;29973;43.742;1.236;2023-02-02T08:36:18;2.00;99.90
44277;DHT22;29973;43.742;1.236;2023-02-02T08:38:45;2.20;99.90
44277;DHT22;29973;43.742;1.236;2023-02-02T08:41:12;2.30;99.90
44277;DHT22;29973;43.742;1.236;2023-02-02T08:43:39;2.50;99.90
44277;DHT22;29973;43.742;1.236;2023-02-02T08:46:07;2.70;99.90
44277;DHT22;29973;43.742;1.236;2023-02-02T08:48:34;2.80;99.90
44277;DHT22;29973;43.742;1.236;2023-02-02T08:51:00;3.00;99.90
44277;DHT22;29973;43.742;1.236;2023-02-02T08:53:27;3.20;99.90
44277;DHT22;29973;43.742;1.236;2023-02-02T08:58:24;3.50;99.90
44277;DHT22;29973;43.742;1.236;2023-02-02T09:00:50;3.90;99.90
44277;DHT22;29973;43.742;1.236;2023-02-02T09:03:16;4.20;99.90
44277;DHT22;29973;43.742;1.236;2023-02-02T09:05:41;4.40;99.90
44277;DHT22;29973;43.742;1.236;2023-02-02T09:08:09;4.60;99.90
44277;DHT22;29973;43.742;1.236;2023-02-02T09:10:36;4.90;99.90
44277;DHT22;29973;43.742;1.236;2023-02-02T09:13:02;5.20;99.90
44277;DHT22;29973;43.742;1.236;2023-02-02T09:15:28;5.40;99.90
44277;DHT22;29973;43.742;1.236;2023-02-02T09:17:57;5.70;99.90
44277;DHT22;29973;43.742;1.236;2023-02-02T09:20:23;6.00;99.90
44277;DHT22;29973;43.742;1.236;2023-02-02T09:22:55;6.30;99.90
44277;DHT22;29973;43.742;1.236;2023-02-02T09:25:21;6.40;99.90
44277;DHT22;29973;43.742;1.236;2023-02-02T09:27:54;6.40;99.90
44277;DHT22;29973;43.742;1.236;2023-02-02T09:30:23;6.60;99.90
44277;DHT22;29973;43.742;1.236;2023-02-02T09:32:53;6.70;99.90
44277;DHT22;29973;43.742;1.236;2023-02-02T09:35:21;6.90;99.90
44277;DHT22;29973;43.742;1.236;2023-02-02T09:37:47;7.10;99.90
44277;DHT22;29973;43.742;1.236;2023-02-02T09:40:19;8.30;99.90
44277;DHT22;29973;43.742;1.236;2023-02-02T09:42:51;10.10;99.10
44277;DHT22;29973;43.742;1.236;2023-02-02T09:45:24;11.80;93.60
44277;DHT22;29973;43.742;1.236;2023-02-02T09:48:22;13.30;87.30
44277;DHT22;29973;43.742;1.236;2023-02-02T09:51:04;13.40;77.70
44277;DHT22;29973;43.742;1.236;2023-02-02T09:53:52;12.60;75.80
44277;DHT22;29973;43.742;1.236;2023-02-02T09:56:45;14.20;76.70
44277;DHT22;29973;43.742;1.236;2023-02-02T09:59:24;14.90;67.10
44277;DHT22;29973;43.742;1.236;2023-02-02T10:01:57;14.50;69.80
44277;DHT22;29973;43.742;1.236;2023-02-02T10:04:34;15.10;68.30
44277;DHT22;29973;43.742;1.236;2023-02-02T10:07:10;15.10;68.60
44277;DHT22;29973;43.742;1.236;2023-02-02T10:09:58;14.70;66.30
44277;DHT22;29973;43.742;1.236;2023-02-02T10:22:47;16.80;61.40
44277;DHT22;29973;43.742;1.236;2023-02-02T10:25:15;16.90;57.00
44277;DHT22;29973;43.742;1.236;2023-02-02T10:27:56;16.20;59.20
44277;DHT22;29973;43.742;1.236;2023-02-02T10:30:46;16.40;57.50
44277;DHT22;29973;43.742;1.236;2023-02-02T10:33:39;17.80;54.70
44277;DHT22;29973;43.742;1.236;2023-02-02T10:36:26;17.30;55.00
44277;DHT22;29973;43.742;1.236;2023-02-02T10:42:38;17.50;51.90
44277;DHT22;29973;43.742;1.236;2023-02-02T10:44:49;17.90;50.80
44277;DHT22;29973;43.742;1.236;2023-02-02T10:47:27;16.80;49.70
44277;DHT22;29973;43.742;1.236;2023-02-02T10:52:44;17.00;51.30
44277;DHT22;29973;43.742;1.236;2023-02-02T10:55:59;17.40;48.90
44277;DHT22;29973;43.742;1.236;2023-02-02T10:58:02;18.10;49.40
44277;DHT22;29973;43.742;1.236;2023-02-02T11:00:50;17.90;48.90
44277;DHT22;29973;43.742;1.236;2023-02-02T11:03:28;18.40;48.30
44277;DHT22;29973;43.742;1.236;2023-02-02T11:05:57;18.50;47.70
44277;DHT22;29973;43.742;1.236;2023-02-02T11:08:48;19.30;44.60
44277;DHT22;29973;43.742;1.236;2023-02-02T11:11:27;19.20;44.10
44277;DHT22;29973;43.742;1.236;2023-02-02T11:16:39;18.90;45.20
44277;DHT22;29973;43.742;1.236;2023-02-02T11:21:49;19.90;42.10
44277;DHT22;29973;43.742;1.236;2023-02-02T11:24:25;17.60;44.50
44277;DHT22;29973;43.742;1.236;2023-02-02T11:29:32;18.80;44.10
44277;DHT22;29973;43.742;1.236;2023-02-02T11:37:51;18.50;45.90
44277;DHT22;29973;43.742;1.236;2023-02-02T11:40:40;17.90;44.70
44277;DHT22;29973;43.742;1.236;2023-02-02T11:43:28;18.70;45.10
44277;DHT22;29973;43.742;1.236;2023-02-02T11:45:59;19.40;42.70
44277;DHT22;29973;43.742;1.236;2023-02-02T11:48:33;19.70;42.80
44277;DHT22;29973;43.742;1.236;2023-02-02T11:51:01;20.00;41.40
44277;DHT22;29973;43.742;1.236;2023-02-02T11:53:45;20.00;41.70
44277;DHT22;29973;43.742;1.236;2023-02-02T11:56:22;19.70;41.20
44277;DHT22;29973;43.742;1.236;2023-02-02T11:58:54;19.40;40.50
44277;DHT22;29973;43.742;1.236;2023-02-02T12:01:28;19.70;40.80
44277;DHT22;29973;43.742;1.236;2023-02-02T12:03:57;20.20;42.80
44277;DHT22;29973;43.742;1.236;2023-02-02T12:06:26;20.30;40.80
44277;DHT22;29973;43.742;1.236;2023-02-02T12:09:00;20.20;39.80
44277;DHT22;29973;43.742;1.236;2023-02-02T12:17:45;19.70;38.40
44277;DHT22;29973;43.742;1.236;2023-02-02T12:22:57;19.90;37.40
44277;DHT22;29973;43.742;1.236;2023-02-02T12:25:59;19.20;40.00
44277;DHT22;29973;43.742;1.236;2023-02-02T12:34:27;21.10;39.50
44277;DHT22;29973;43.742;1.236;2023-02-02T12:48:13;18.20;42.90
44277;DHT22;29973;43.742;1.236;2023-02-02T12:54:04;18.10;45.10
44277;DHT22;29973;43.742;1.236;2023-02-02T12:56:48;20.80;38.00
44277;DHT22;29973;43.742;1.236;2023-02-02T13:08:00;15.60;45.30
44277;DHT22;29973;43.742;1.236;2023-02-02T13:10:41;16.00;46.70
44277;DHT22;29973;43.742;1.236;2023-02-02T13:13:20;18.80;44.40
44277;DHT22;29973;43.742;1.236;2023-02-02T13:15:53;17.90;42.80
44277;DHT22;29973;43.742;1.236;2023-02-02T13:18:22;18.90;42.10
44277;DHT22;29973;43.742;1.236;2023-02-02T13:20:54;18.50;42.90
44277;DHT22;29973;43.742;1.236;2023-02-02T13:23:23;19.60;40.50
44277;DHT22;29973;43.742;1.236;2023-02-02T13:25:55;19.50;41.80
44277;DHT22;29973;43.742;1.236;2023-02-02T13:28:44;18.60;39.70
44277;DHT22;29973;43.742;1.236;2023-02-02T13:40:25;20.70;42.30
44277;DHT22;29973;43.742;1.236;2023-02-02T13:48:59;19.30;38.90
44277;DHT22;29973;43.742;1.236;2023-02-02T14:00:20;18.30;43.30
44277;DHT22;29973;43.742;1.236;2023-02-02T14:02:56;17.00;46.50
44277;DHT22;29973;43.742;1.236;2023-02-02T14:08:06;18.40;43.70
44277;DHT22;29973;43.742;1.236;2023-02-02T14:10:42;16.80;46.50
44277;DHT22;29973;43.742;1.236;2023-02-02T14:16:02;20.10;42.60
44277;DHT22;29973;43.742;1.236;2023-02-02T14:26:56;18.80;40.80
44277;DHT22;29973;43.742;1.236;2023-02-02T14:32:02;19.60;41.80
44277;DHT22;29973;43.742;1.236;2023-02-02T14:34:39;20.70;40.40
44277;DHT22;29973;43.742;1.236;2023-02-02T14:45:35;19.20;42.30
44277;DHT22;29973;43.742;1.236;2023-02-02T14:58:25;19.60;42.70
44277;DHT22;29973;43.742;1.236;2023-02-02T15:06:29;17.50;44.40
44277;DHT22;29973;43.742;1.236;2023-02-02T15:19:45;18.30;44.10
44277;DHT22;29973;43.742;1.236;2023-02-02T15:24:44;18.60;42.60
44277;DHT22;29973;43.742;1.236;2023-02-02T15:27:17;18.10;44.00
44277;DHT22;29973;43.742;1.236;2023-02-02T15:29:45;18.40;44.90
44277;DHT22;29973;43.742;1.236;2023-02-02T15:32:20;18.90;43.20
44277;DHT22;29973;43.742;1.236;2023-02-02T15:34:51;17.60;45.40
44277;DHT22;29973;43.742;1.236;2023-02-02T15:37:22;17.90;45.90
44277;DHT22;29973;43.742;1.236;2023-02-02T15:39:52;18.40;45.00
44277;DHT22;29973;43.742;1.236;2023-02-02T15:42:40;18.90;43.70
44277;DHT22;29973;43.742;1.236;2023-02-02T15:47:58;17.90;46.80
44277;DHT22;29973;43.742;1.236;2023-02-02T15:50:25;18.40;46.00
44277;DHT22;29973;43.742;1.236;2023-02-02T15:52:52;18.30;44.70
44277;DHT22;29973;43.742;1.236;2023-02-02T15:57:47;18.10;46.10
44277;DHT22;29973;43.742;1.236;2023-02-02T16:00:34;17.70;45.90
44277;DHT22;29973;43.742;1.236;2023-02-02T16:03:24;15.50;49.70
44277;DHT22;29973;43.742;1.236;2023-02-02T16:05:55;12.50;57.10
44277;DHT22;29973;43.742;1.236;2023-02-02T16:08:29;11.50;62.60
44277;DHT22;29973;43.742;1.236;2023-02-02T16:11:11;10.90;63.20
44277;DHT22;29973;43.742;1.236;2023-02-02T16:13:39;10.70;64.70
44277;DHT22;29973;43.742;1.236;2023-02-02T16:16:25;10.30;67.60
44277;DHT22;29973;43.742;1.236;2023-02-02T16:19:17;10.00;70.10
44277;DHT22;29973;43.742;1.236;2023-02-02T16:21:57;9.70;70.80
44277;DHT22;29973;43.742;1.236;2023-02-02T16:24:32;9.90;71.00
44277;DHT22;29973;43.742;1.236;2023-02-02T16:27:00;9.60;72.10
44277;DHT22;29973;43.742;1.236;2023-02-02T16:29:27;9.50;73.20
44277;DHT22;29973;43.742;1.236;2023-02-02T16:31:54;9.40;73.10
44277;DHT22;29973;43.742;1.236;2023-02-02T16:37:16;8.90;76.20
44277;DHT22;29973;43.742;1.236;2023-02-02T16:39:47;8.90;77.10
44277;DHT22;29973;43.742;1.236;2023-02-02T16:42:25;8.70;77.50
44277;DHT22;29973;43.742;1.236;2023-02-02T16:44:52;8.40;79.40
44277;DHT22;29973;43.742;1.236;2023-02-02T16:47:37;8.40;79.90
44277;DHT22;29973;43.742;1.236;2023-02-02T16:52:33;8.00;83.90
44277;DHT22;29973;43.742;1.236;2023-02-02T16:55:00;7.80;84.40
44277;DHT22;29973;43.742;1.236;2023-02-02T16:57:29;7.50;86.70
44277;DHT22;29973;43.742;1.236;2023-02-02T16:59:58;7.30;87.50
44277;DHT22;29973;43.742;1.236;2023-02-02T17:05:17;7.10;89.20
44277;DHT22;29973;43.742;1.236;2023-02-02T17:07:53;7.00;90.00
44277;DHT22;29973;43.742;1.236;2023-02-02T17:10:24;6.70;90.80
44277;DHT22;29973;43.742;1.236;2023-02-02T17:12:50;6.50;91.50
44277;DHT22;29973;43.742;1.236;2023-02-02T17:17:46;6.10;92.80
44277;DHT22;29973;43.742;1.236;2023-02-02T17:20:14;6.00;93.60
44277;DHT22;29973;43.742;1.236;2023-02-02T17:22:43;5.80;94.00
44277;DHT22;29973;43.742;1.236;2023-02-02T17:25:18;5.70;94.60
44277;DHT22;29973;43.742;1.236;2023-02-02T17:27:46;5.80;94.50
44277;DHT22;29973;43.742;1.236;2023-02-02T17:30:17;5.70;94.70
44277;DHT22;29973;43.742;1.236;2023-02-02T17:32:43;5.60;95.30
44277;DHT22;29973;43.742;1.236;2023-02-02T17:35:13;5.40;95.60
44277;DHT22;29973;43.742;1.236;2023-02-02T17:37:40;5.30;96.30
44277;DHT22;29973;43.742;1.236;2023-02-02T17:40:06;5.20;97.00
44277;DHT22;29973;43.742;1.236;2023-02-02T17:42:33;5.10;97.80
44277;DHT22;29973;43.742;1.236;2023-02-02T17:44:59;5.00;97.80
44277;DHT22;29973;43.742;1.236;2023-02-02T17:47:25;4.80;98.20
44277;DHT22;29973;43.742;1.236;2023-02-02T17:49:51;4.70;99.00
44277;DHT22;29973;43.742;1.236;2023-02-02T17:52:16;4.80;99.70
44277;DHT22;29973;43.742;1.236;2023-02-02T17:54:42;4.80;99.60
44277;DHT22;29973;43.742;1.236;2023-02-02T17:57:08;4.90;99.20
44277;DHT22;29973;43.742;1.236;2023-02-02T17:59:34;4.70;99.60
44277;DHT22;29973;43.742;1.236;2023-02-02T18:02:00;4.70;99.90
44277;DHT22;29973;43.742;1.236;2023-02-02T18:04:26;4.60;99.90
44277;DHT22;29973;43.742;1.236;2023-02-02T18:06:52;4.50;99.90
44277;DHT22;29973;43.742;1.236;2023-02-02T18:09:18;4.30;99.90
44277;DHT22;29973;43.742;1.236;2023-02-02T18:11:44;4.30;99.90
44277;DHT22;29973;43.742;1.236;2023-02-02T18:14:12;4.10;99.90
44277;DHT22;29973;43.742;1.236;2023-02-02T18:16:38;3.90;99.90
44277;DHT22;29973;43.742;1.236;2023-02-02T18:19:04;3.90;99.90
44277;DHT22;29973;43.742;1.236;2023-02-02T18:21:29;3.80;99.90
44277;DHT22;29973;43.742;1.236;2023-02-02T18:23:56;3.80;99.90
44277;DHT22;29973;43.742;1.236;2023-02-02T18:26:23;3.80;99.90
44277;DHT22;29973;43.742;1.236;2023-02-02T18:28:49;3.70;99.90
44277;DHT22;29973;43.742;1.236;2023-02-02T18:31:19;3.50;99.90
44277;DHT22;29973;43.742;1.236;2023-02-02T18:33:46;3.50;99.90
44277;DHT22;29973;43.742;1.236;2023-02-02T18:36:17;3.80;99.90
44277;DHT22;29973;43.742;1.236;2023-02-02T18:38:46;3.60;99.90
44277;DHT22;29973;43.742;1.236;2023-02-02T18:41:13;3.60;99.90
44277;DHT22;29973;43.742;1.236;2023-02-02T18:43:39;3.60;99.90
44277;DHT22;29973;43.742;1.236;2023-02-02T18:46:11;3.40;99.90
44277;DHT22;29973;43.742;1.236;2023-02-02T18:48:41;3.40;99.90
44277;DHT22;29973;43.742;1.236;2023-02-02T18:51:09;3.40;99.90
44277;DHT22;29973;43.742;1.236;2023-02-02T18:53:35;3.40;99.90
44277;DHT22;29973;43.742;1.236;2023-02-02T18:56:09;3.40;99.90
44277;DHT22;29973;43.742;1.236;2023-02-02T18:58:35;3.50;99.90
44277;DHT22;29973;43.742;1.236;2023-02-02T19:01:13;3.30;99.90
44277;DHT22;29973;43.742;1.236;2023-02-02T19:03:40;3.30;99.90
44277;DHT22;29973;43.742;1.236;2023-02-02T19:06:07;3.20;99.90
44277;DHT22;29973;43.742;1.236;2023-02-02T19:08:53;3.30;99.90
44277;DHT22;29973;43.742;1.236;2023-02-02T19:11:21;3.20;99.90
44277;DHT22;29973;43.742;1.236;2023-02-02T19:13:47;3.10;99.90
44277;DHT22;29973;43.742;1.236;2023-02-02T19:16:24;3.20;99.90